createdAt,value
2019-04-10T00:00:02.655Z,99199.83
2019-04-10T00:06:07.278Z,99197.21
2019-04-10T00:12:11.898Z,99202.54
2019-04-10T00:18:16.463Z,99200.02
2019-04-10T00:24:21.906Z,99197.38
2019-04-10T00:30:27.094Z,99196.67
2019-04-10T00:36:31.763Z,99196.13
2019-04-10T00:42:36.981Z,99190.55
2019-04-10T00:48:41.840Z,99190.02
2019-04-10T00:54:46.931Z,99198.56
2019-04-10T01:00:51.886Z,99195.97
2019-04-10T01:06:56.736Z,99195.67
2019-04-10T01:13:02.681Z,99181.99
2019-04-10T01:19:07.885Z,99189.52
2019-04-10T01:25:13.096Z,99190.80
2019-04-10T01:31:17.629Z,99199.85
2019-04-10T01:37:22.944Z,99198.72
2019-04-10T01:43:27.809Z,99197.17
2019-04-10T01:49:33.508Z,99198.77
2019-04-10T01:55:38.858Z,99199.16
2019-04-10T02:01:50.933Z,99200.22
2019-04-10T02:08:05.691Z,99204.52
2019-04-10T02:14:01.997Z,99201.89
2019-04-10T02:20:14.420Z,99200.94
2019-04-10T02:26:19.212Z,99202.76
2019-04-10T02:32:24.178Z,99207.14
2019-04-10T02:38:47.027Z,99204.20
2019-04-10T02:44:35.643Z,99203.05
2019-04-10T02:50:40.742Z,99204.12
2019-04-10T02:56:46.367Z,99203.78
2019-04-10T03:02:52.069Z,99207.78
2019-04-10T03:09:09.575Z,99205.42
2019-04-10T03:15:07.901Z,99205.95
2019-04-10T03:21:13.628Z,99214.36
2019-04-10T03:27:19.200Z,99211.50
2019-04-10T03:33:29.642Z,99218.48
2019-04-10T03:39:33.522Z,99214.64
2019-04-10T03:45:38.952Z,99228.52
2019-04-10T03:51:43.641Z,99236.68
2019-04-10T03:57:49.115Z,99230.98
2019-04-10T04:03:53.711Z,99229.77
2019-04-10T04:09:58.287Z,99225.68
2019-04-10T04:16:02.884Z,99227.67
2019-04-10T04:22:08.300Z,99233.45
2019-04-10T04:28:12.876Z,99233.77
2019-04-10T04:34:18.427Z,99239.59
2019-04-10T04:40:23.820Z,99239.66
2019-04-10T04:46:28.639Z,99246.50
2019-04-10T04:52:33.178Z,99255.75
2019-04-10T04:58:38.208Z,99249.39
2019-04-10T05:04:43.791Z,99261.41
2019-04-10T05:10:49.563Z,99269.20
2019-04-10T05:16:55.374Z,99276.05
2019-04-10T05:23:00.045Z,99281.20
2019-04-10T05:29:04.742Z,99278.56
2019-04-10T05:35:10.091Z,99287.16
2019-04-10T05:41:15.501Z,99289.95
2019-04-10T05:47:21.334Z,99288.19
2019-04-10T05:53:26.658Z,99297.73
2019-04-10T05:59:32.141Z,99308.36
2019-04-10T06:05:36.816Z,99315.70
2019-04-10T06:11:44.028Z,99314.04
2019-04-10T06:17:48.918Z,99318.55
2019-04-10T06:23:53.962Z,99313.44
2019-04-10T06:29:59.416Z,99313.94
2019-04-10T06:36:04.967Z,99316.52
2019-04-10T06:42:09.658Z,99321.73
2019-04-10T06:48:15.077Z,99319.62
2019-04-10T06:54:20.563Z,99322.47
2019-04-10T07:00:25.538Z,99329.61
2019-04-10T07:06:45.179Z,99334.95
2019-04-10T07:12:37.450Z,99333.75
2019-04-10T07:18:45.867Z,99341.28
2019-04-10T07:24:48.490Z,99335.52
2019-04-10T07:30:56.722Z,99337.64
2019-04-10T07:37:00.194Z,99341.30
2019-04-10T07:43:04.921Z,99343.16
2019-04-10T07:49:10.383Z,99350.02
2019-04-10T07:55:15.381Z,99343.59
2019-04-10T08:01:19.995Z,99344.69
2019-04-10T08:07:30.007Z,99348.59
2019-04-10T08:13:30.946Z,99339.14
2019-04-10T08:19:35.688Z,99328.53
2019-04-10T08:25:40.893Z,99335.76
2019-04-10T08:31:46.217Z,99336.50
2019-04-10T08:37:50.864Z,99326.00
2019-04-10T08:43:56.716Z,99319.25
2019-04-10T08:50:01.529Z,99333.07
2019-04-10T08:56:06.550Z,99327.08
2019-04-10T09:02:11.652Z,99325.95
2019-04-10T09:08:17.046Z,99319.12
2019-04-10T09:14:21.658Z,99321.64
2019-04-10T09:20:26.799Z,99330.63
2019-04-10T09:26:32.659Z,99313.77
2019-04-10T09:32:37.345Z,99314.17
2019-04-10T09:38:43.909Z,99309.63
2019-04-10T09:44:48.553Z,99320.09
2019-04-10T09:50:53.245Z,99308.38
2019-04-10T09:56:57.822Z,99307.85
2019-04-10T10:03:03.491Z,99304.11
2019-04-10T10:09:08.824Z,99297.79
2019-04-10T10:15:13.931Z,99295.11
2019-04-10T10:21:18.713Z,99292.15
2019-04-10T10:27:23.679Z,99298.73
2019-04-10T10:33:29.931Z,99302.08
2019-04-10T10:39:37.380Z,99309.13
2019-04-10T10:45:42.933Z,99309.83
2019-04-10T10:51:47.839Z,99312.50
2019-04-10T10:57:52.494Z,99308.16
2019-04-10T11:03:58.340Z,99309.80
2019-04-10T11:10:04.251Z,99305.66
2019-04-10T11:16:09.264Z,99310.42
2019-04-10T11:22:22.530Z,99311.06
2019-04-10T11:28:29.922Z,99311.38
2019-04-10T11:34:32.097Z,99305.41
2019-04-10T11:40:36.923Z,99311.09
2019-04-10T11:46:41.981Z,99309.72
2019-04-10T11:52:52.529Z,99314.64
2019-04-10T11:58:56.310Z,99311.02
2019-04-10T12:05:08.614Z,99313.56
2019-04-10T12:11:10.720Z,99316.63
2019-04-10T12:17:13.748Z,99318.58
2019-04-10T12:23:18.844Z,99323.83
2019-04-10T12:29:24.662Z,99322.98
2019-04-10T12:35:29.778Z,99320.61
2019-04-10T12:41:35.240Z,99327.81
2019-04-10T12:47:39.880Z,99333.90
2019-04-10T12:53:45.565Z,99328.83
2019-04-10T12:59:50.253Z,99326.70
2019-04-10T13:05:55.643Z,99329.27
2019-04-10T13:12:02.194Z,99335.36
2019-04-10T13:18:07.902Z,99334.74
2019-04-10T13:24:13.233Z,99327.09
2019-04-10T13:30:18.715Z,99333.14
2019-04-10T13:36:23.896Z,99338.08
2019-04-10T13:42:30.153Z,99338.00
2019-04-10T13:48:35.576Z,99330.86
2019-04-10T13:54:40.962Z,99327.61
2019-04-10T14:00:45.762Z,99325.31
2019-04-10T14:06:51.413Z,99328.52
2019-04-10T14:12:57.689Z,99329.44
2019-04-10T14:19:03.367Z,99338.42
2019-04-10T14:25:09.769Z,99335.38
2019-04-10T14:31:18.794Z,99341.69
2019-04-10T14:37:23.521Z,99347.52
2019-04-10T14:43:29.232Z,99350.23
2019-04-10T14:49:33.776Z,99354.72
2019-04-10T14:55:38.364Z,99354.95
2019-04-10T15:01:44.153Z,99355.18
2019-04-10T15:07:48.801Z,99364.59
2019-04-10T15:13:53.462Z,99367.70
2019-04-10T15:19:58.615Z,99370.87
2019-04-10T15:26:03.844Z,99369.48
2019-04-10T15:32:09.225Z,99377.80
2019-04-10T15:38:13.847Z,99382.67
2019-04-10T15:44:18.468Z,99385.09
2019-04-10T15:50:24.199Z,99382.27
2019-04-10T15:56:29.816Z,99387.79
2019-04-10T16:02:34.554Z,99391.28
2019-04-10T16:08:40.801Z,99395.20
2019-04-10T16:14:46.593Z,99398.61
2019-04-10T16:20:52.984Z,99400.39
2019-04-10T16:26:57.937Z,99401.11
2019-04-10T16:33:02.967Z,99407.88
2019-04-10T16:39:18.299Z,99409.84
2019-04-10T16:45:24.689Z,99404.84
2019-04-10T16:51:29.285Z,99415.47
2019-04-10T16:57:34.577Z,99413.57
2019-04-10T17:03:40.153Z,99414.13
2019-04-10T17:16:13.835Z,99426.08
2019-04-10T17:22:31.046Z,99428.97
2019-04-10T17:28:25.424Z,99434.20
2019-04-10T17:34:31.151Z,99435.81
2019-04-10T17:40:45.834Z,99439.24
2019-04-10T17:46:42.245Z,99452.14
2019-04-10T17:52:47.189Z,99457.63
2019-04-10T17:58:52.095Z,99461.39
2019-04-10T18:04:58.014Z,99470.86
2019-04-10T18:11:03.808Z,99478.55
2019-04-10T18:17:09.025Z,99495.48
2019-04-10T18:23:13.843Z,99508.74
2019-04-10T18:29:19.073Z,99514.88
2019-04-10T18:35:24.767Z,99525.80
2019-04-10T18:41:30.018Z,99532.44
2019-04-10T18:47:36.418Z,99542.75
2019-04-10T18:53:42.318Z,99549.88
2019-04-10T18:59:49.118Z,99550.89
2019-04-10T19:05:58.500Z,99558.55
2019-04-10T19:12:04.301Z,99559.52
2019-04-10T19:18:09.313Z,99562.38
2019-04-10T19:24:14.323Z,99563.70
2019-04-10T19:30:21.219Z,99572.19
2019-04-10T19:36:25.907Z,99586.97
2019-04-10T19:42:30.472Z,99591.95
2019-04-10T19:48:35.241Z,99595.56
2019-04-10T19:54:40.868Z,99601.83
2019-04-10T20:00:46.519Z,99600.98
2019-04-10T20:06:52.232Z,99603.16
2019-04-10T20:12:57.195Z,99611.30
2019-04-10T20:19:01.922Z,99617.04
2019-04-10T20:25:06.612Z,99616.84
2019-04-10T20:31:13.131Z,99617.50
2019-04-10T20:37:18.585Z,99633.50
2019-04-10T20:43:23.345Z,99622.89
2019-04-10T20:49:28.106Z,99623.23
2019-04-10T20:55:33.474Z,99629.83
2019-04-10T21:01:39.226Z,99636.58
2019-04-10T21:07:43.990Z,99642.50
2019-04-10T21:13:49.000Z,99645.49
2019-04-10T21:19:53.796Z,99648.71
2019-04-10T21:25:59.478Z,99648.88
2019-04-10T21:32:11.660Z,99653.28
2019-04-10T21:38:17.243Z,99660.45
2019-04-10T21:44:21.926Z,99669.27
2019-04-10T21:50:26.984Z,99674.95
2019-04-10T21:56:31.649Z,99673.37
2019-04-10T22:02:36.343Z,99672.32
2019-04-10T22:08:45.691Z,99665.95
2019-04-10T22:14:50.361Z,99662.82
2019-04-10T22:20:57.070Z,99663.19
2019-04-10T22:27:01.642Z,99667.80
2019-04-10T22:33:07.509Z,99666.70
2019-04-10T22:39:14.602Z,99666.01
2019-04-10T22:45:29.239Z,99670.70
2019-04-10T22:51:35.587Z,99671.16
2019-04-10T22:57:41.604Z,99673.45
2019-04-10T23:03:47.352Z,99683.41
2019-04-10T23:09:52.768Z,99690.98
2019-04-10T23:15:57.845Z,99700.14
2019-04-10T23:22:03.124Z,99700.69
2019-04-10T23:28:07.904Z,99705.83
2019-04-10T23:34:12.656Z,99701.55
2019-04-10T23:40:17.264Z,99705.73
2019-04-10T23:46:22.233Z,99706.66
2019-04-10T23:52:27.583Z,99714.98
2019-04-10T23:58:32.269Z,99716.52
